Key Lake Airport
CYKJ : now visible

Airfield :











YOU CAN JOIN US ON...

 
LOGIN :

Register | Disclaimer

   EN    FR    IT 

 









Legend :    VFR   Marginal VFR   IFR   Intensive IFR   Very Intensive IFR
Visi :
Ceiling :
>= 8 km
>= 3000ft
5 to 8 km
1000 to 3000 ft
1500m to 5 km
500 to 1000 ft
800 to 1500m
200 to 500 ft
< 800m
< 200 ft
Symbols :   Thunderstorms  Fog  Heavy snow  Heavy precipitations  Wind > 20 kt






- Airport Elevation : 1679 ft
- IATA code : YKJ


CYKJ - Key Lake

CURRENT METAR :
  • 110316Z AUTO 30009G19KT 3SM -RA BR FEW017 BKN022 BKN029 OVC065 14/13 A2952 RMK SLP010 DENSITY ALT 2300FT

EXPIRED METARs :
  • 110247Z AUTO 30009G16KT 6SM RA BR BKN019 BKN049 OVC055 15/13 A2952 RMK SLP007 DENSITY ALT 2500FT
  • 110200Z AUTO 30008KT 9SM FEW021 SCT031 SCT042 OVC075 15/13 A2951 RMK SLP006 DENSITY ALT 2500FT
  • 110100Z AUTO 30009KT 9SM SCT041 BKN048 BKN090 OVC130 16/13 A2950 RMK SLP002 DENSITY ALT 2600FT

Expired Forecast.
CZEG FIR / North America



MET'MAP, your aeronautical weather chart ! - Copyright ORBIFLY December 2007 - Disclaimer

ORBIFLY MET'MAP TEAM :

Programming & Development : Alexandra Zaïnal
Concept & original design : Baudouin d'Aumeries
Assistance for programming : Marc-Olivier Méhu
Technical & hardware support : Manuel Goepfert

Contact : metmap@orbifly.com




SOURCES & CREDITS :

   NOAA       Earth
Advisory